createdAt,value
2023-04-14T00:00:55.923Z,50301.99
2023-04-14T00:03:24.357Z,50282.40
2023-04-14T00:05:53.034Z,50279.60
2023-04-14T00:08:21.253Z,50287.99
2023-04-14T00:10:49.510Z,50276.40
2023-04-14T00:13:17.702Z,50274.00
2023-04-14T00:15:45.971Z,50282.39
2023-04-14T00:18:14.169Z,50295.59
2023-04-14T00:20:42.326Z,50286.39
2023-04-14T00:23:10.858Z,50281.59
2023-04-14T00:25:39.445Z,50294.79
2023-04-14T00:28:07.701Z,50297.59
2023-04-14T00:30:36.006Z,50308.79
2023-04-14T00:33:04.358Z,50299.59
2023-04-14T00:35:32.990Z,50301.19
2023-04-14T00:38:01.244Z,50287.59
2023-04-14T00:40:31.438Z,50277.20
2023-04-14T00:42:59.749Z,50296.79
2023-04-14T00:45:28.655Z,50293.59
2023-04-14T00:47:58.699Z,50298.79
2023-04-14T00:50:26.950Z,50290.39
2023-04-14T00:52:56.228Z,50292.79
2023-04-14T00:55:25.646Z,50303.99
2023-04-14T00:57:55.070Z,50291.59
2023-04-14T01:00:23.396Z,50289.99
2023-04-14T01:02:51.935Z,50277.20
2023-04-14T01:05:20.710Z,50277.59
2023-04-14T01:07:49.897Z,50285.59
2023-04-14T01:10:18.500Z,50303.19
2023-04-14T01:13:17.210Z,50295.99
2023-04-14T01:15:59.647Z,50301.59
2023-04-14T01:18:39.982Z,50289.20
2023-04-14T01:21:17.596Z,50298.79
2023-04-14T01:24:24.949Z,50301.19
2023-04-14T01:27:23.470Z,50280.39
2023-04-14T01:30:17.940Z,50291.99
2023-04-14T01:32:50.050Z,50297.19
2023-04-14T01:35:26.092Z,50288.39
2023-04-14T01:38:01.016Z,50301.19
2023-04-14T01:40:33.454Z,50287.59
2023-04-14T01:43:06.281Z,50290.79
2023-04-14T01:45:39.772Z,50292.79
2023-04-14T01:48:09.291Z,50294.79
2023-04-14T01:50:39.317Z,50299.20
2023-04-14T01:53:09.227Z,50284.40
2023-04-14T01:55:38.984Z,50285.59
2023-04-14T01:58:09.518Z,50290.39
2023-04-14T02:00:39.757Z,50284.79
2023-04-14T02:03:08.871Z,50290.39
2023-04-14T02:05:39.861Z,50297.19
2023-04-14T02:08:12.978Z,50295.99
2023-04-14T02:10:46.136Z,50291.59
2023-04-14T02:13:17.775Z,50294.39
2023-04-14T02:15:48.927Z,50298.79
2023-04-14T02:18:22.441Z,50293.20
2023-04-14T02:20:52.866Z,50304.39
2023-04-14T02:23:21.756Z,50299.99
2023-04-14T02:26:18.808Z,50286.79
2023-04-14T02:28:51.675Z,50290.39
2023-04-14T02:31:24.050Z,50301.19
2023-04-14T02:33:55.693Z,50292.79
2023-04-14T02:36:34.525Z,50283.20
2023-04-14T02:39:12.124Z,50299.19
2023-04-14T02:41:44.530Z,50279.60
2023-04-14T02:44:12.687Z,50294.79
2023-04-14T02:46:46.682Z,50290.79
2023-04-14T02:49:16.679Z,50283.99
2023-04-14T02:51:47.787Z,50293.60
2023-04-14T02:54:19.715Z,50282.79
2023-04-14T02:56:49.806Z,50291.20
2023-04-14T02:59:22.252Z,50292.79
2023-04-14T03:02:02.415Z,50288.39
2023-04-14T03:04:36.896Z,50280.00
2023-04-14T03:07:09.618Z,50307.99
2023-04-14T03:09:40.491Z,50291.59
2023-04-14T03:12:14.750Z,50297.19
2023-04-14T03:14:45.110Z,50291.20
2023-04-14T03:17:15.055Z,50301.19
2023-04-14T03:19:48.447Z,50282.39
2023-04-14T03:22:18.581Z,50295.99
2023-04-14T03:24:47.327Z,50290.79
2023-04-14T03:27:28.296Z,50293.99
2023-04-14T03:30:03.614Z,50298.39
2023-04-14T03:32:42.327Z,50272.40
2023-04-14T03:35:15.713Z,50291.20
2023-04-14T03:37:46.724Z,50293.99
2023-04-14T03:40:17.627Z,50279.60
2023-04-14T03:42:49.136Z,50285.99
2023-04-14T03:45:21.339Z,50284.39
2023-04-14T03:47:55.663Z,50279.20
2023-04-14T03:50:30.846Z,50266.80
2023-04-14T03:52:59.753Z,50285.60
2023-04-14T03:55:32.104Z,50268.80
2023-04-14T03:58:02.640Z,50282.00
2023-04-14T04:00:31.583Z,50296.79
2023-04-14T04:03:01.617Z,50277.20
2023-04-14T04:05:31.160Z,50271.20
2023-04-14T04:08:04.062Z,50268.00
2023-04-14T04:10:36.572Z,50273.60
2023-04-14T04:13:13.018Z,50266.80
2023-04-14T04:15:42.333Z,50271.60
2023-04-14T04:18:15.560Z,50268.00
2023-04-14T04:20:46.512Z,50273.20
2023-04-14T04:23:18.587Z,50281.20
2023-04-14T04:25:48.208Z,50279.20
2023-04-14T04:28:23.210Z,50260.41
2023-04-14T04:30:55.055Z,50282.00
2023-04-14T04:33:24.286Z,50275.20
2023-04-14T04:35:54.830Z,50266.40
2023-04-14T04:38:24.706Z,50276.40
2023-04-14T04:40:53.533Z,50275.60
2023-04-14T04:43:25.387Z,50273.60
2023-04-14T04:46:11.626Z,50265.20
2023-04-14T04:48:40.769Z,50266.80
2023-04-14T04:51:08.949Z,50261.60
2023-04-14T04:53:37.211Z,50252.80
2023-04-14T04:56:06.851Z,50255.20
2023-04-14T04:58:35.073Z,50247.21
2023-04-14T05:01:10.520Z,50248.80
2023-04-14T05:03:39.050Z,50256.80
2023-04-14T05:06:08.378Z,50251.21
2023-04-14T05:08:36.722Z,50254.80
2023-04-14T05:11:06.414Z,50253.21
2023-04-14T05:13:34.662Z,50248.01
2023-04-14T05:16:08.158Z,50248.01
2023-04-14T05:18:37.198Z,50252.41
2023-04-14T05:21:13.495Z,50253.61
2023-04-14T05:23:43.916Z,50252.01
2023-04-14T05:28:44.436Z,50250.41
2023-04-14T05:31:12.822Z,50221.21
2023-04-14T05:33:43.112Z,50227.21
2023-04-14T05:36:11.418Z,50222.82
2023-04-14T05:38:43.158Z,50232.41
2023-04-14T05:41:12.433Z,50238.41
2023-04-14T05:43:40.869Z,50247.21
2023-04-14T05:46:09.153Z,50224.81
2023-04-14T05:48:38.298Z,50232.81
2023-04-14T05:51:06.735Z,50242.81
2023-04-14T05:53:34.941Z,50252.00
2023-04-14T05:56:03.264Z,50244.81
2023-04-14T05:58:31.491Z,50236.01
2023-04-14T06:01:00.526Z,50232.01
2023-04-14T06:03:29.098Z,50227.61
2023-04-14T06:05:58.068Z,50248.80
2023-04-14T06:08:26.314Z,50239.21
2023-04-14T06:10:55.361Z,50244.81
2023-04-14T06:13:23.539Z,50208.82
2023-04-14T06:15:53.848Z,50221.62
2023-04-14T06:18:26.232Z,50201.22
2023-04-14T06:20:54.511Z,50220.02
2023-04-14T06:23:22.792Z,50229.61
2023-04-14T06:25:52.565Z,50239.61
2023-04-14T06:28:24.336Z,50233.21
2023-04-14T06:30:53.001Z,50232.41
2023-04-14T06:33:22.083Z,50236.01
2023-04-14T06:35:51.494Z,50217.22
2023-04-14T06:38:19.695Z,50223.62
2023-04-14T06:40:48.620Z,50220.82
2023-04-14T06:43:18.309Z,50235.61
2023-04-14T06:45:46.869Z,50210.82
2023-04-14T06:48:16.310Z,50213.62
2023-04-14T06:50:51.840Z,50231.21
2023-04-14T06:53:19.995Z,50239.21
2023-04-14T06:55:52.073Z,50234.41
2023-04-14T06:58:21.641Z,50212.82
2023-04-14T07:00:58.446Z,50225.21
2023-04-14T07:03:28.335Z,50212.02
2023-04-14T07:06:12.268Z,50201.62
2023-04-14T07:08:40.775Z,50220.02
2023-04-14T07:11:11.404Z,50224.01
2023-04-14T07:13:40.979Z,50231.61
2023-04-14T07:16:09.364Z,50210.82
2023-04-14T07:18:37.658Z,50226.82
2023-04-14T07:21:05.954Z,50205.62
2023-04-14T07:23:34.560Z,50219.62
2023-04-14T07:26:03.710Z,50210.02
2023-04-14T07:28:32.737Z,50205.62
2023-04-14T07:31:10.996Z,50201.22
2023-04-14T07:33:41.510Z,50206.02
2023-04-14T07:36:10.622Z,50202.02
2023-04-14T07:38:38.995Z,50198.02
2023-04-14T07:41:07.653Z,50184.83
2023-04-14T07:43:36.127Z,50187.63
2023-04-14T07:46:06.831Z,50201.63
2023-04-14T07:48:37.025Z,50194.82
2023-04-14T07:51:08.551Z,50190.82
2023-04-14T07:53:42.495Z,50199.62
2023-04-14T07:56:12.198Z,50212.42
2023-04-14T07:58:40.508Z,50210.02
2023-04-14T08:01:09.232Z,50207.62
2023-04-14T08:03:37.893Z,50204.82
2023-04-14T08:06:07.580Z,50210.02
2023-04-14T08:08:36.943Z,50204.42
2023-04-14T08:11:05.335Z,50194.82
2023-04-14T08:13:35.992Z,50201.62
2023-04-14T08:16:04.587Z,50195.63
2023-04-14T08:18:33.779Z,50182.83
2023-04-14T08:21:02.309Z,50183.23
2023-04-14T08:23:30.493Z,50199.62
2023-04-14T08:25:58.759Z,50190.02
2023-04-14T08:28:29.297Z,50199.22
2023-04-14T08:30:59.119Z,50205.62
2023-04-14T08:33:27.828Z,50189.63
2023-04-14T08:35:59.455Z,50202.02
2023-04-14T08:38:29.462Z,50202.82
2023-04-14T08:41:01.549Z,50195.62
2023-04-14T08:43:30.105Z,50203.62
2023-04-14T08:46:00.582Z,50224.82
2023-04-14T08:48:31.260Z,50217.22
2023-04-14T08:51:32.551Z,50193.63
2023-04-14T08:54:03.268Z,50186.43
2023-04-14T08:56:35.053Z,50204.82
2023-04-14T08:59:04.477Z,50203.62
2023-04-14T09:01:37.911Z,50214.82
2023-04-14T09:04:08.285Z,50204.42
2023-04-14T09:06:37.525Z,50197.62
2023-04-14T09:09:09.551Z,50209.62
2023-04-14T09:11:40.009Z,50198.82
2023-04-14T09:14:11.308Z,50212.02
2023-04-14T09:16:43.054Z,50198.02
2023-04-14T09:19:11.648Z,50197.62
2023-04-14T09:21:52.949Z,50199.22
2023-04-14T09:24:32.205Z,50199.23
2023-04-14T09:27:05.577Z,50201.62
2023-04-14T09:29:34.363Z,50207.62
2023-04-14T09:32:04.005Z,50204.02
2023-04-14T09:34:32.583Z,50199.23
2023-04-14T09:37:03.128Z,50208.82
2023-04-14T09:39:33.005Z,50194.82
2023-04-14T09:42:02.145Z,50202.02
2023-04-14T09:44:31.579Z,50190.03
2023-04-14T09:47:00.782Z,50202.42
2023-04-14T09:49:30.138Z,50208.42
2023-04-14T09:52:08.471Z,50200.82
2023-04-14T09:54:40.538Z,50191.63
2023-04-14T09:57:08.850Z,50198.82
2023-04-14T09:59:40.558Z,50193.23
2023-04-14T10:02:10.571Z,50184.43
2023-04-14T10:04:39.640Z,50181.23
2023-04-14T10:07:09.135Z,50188.02
2023-04-14T10:09:38.830Z,50188.03
2023-04-14T10:12:15.848Z,50176.83
2023-04-14T10:14:44.690Z,50194.02
2023-04-14T10:17:14.002Z,50166.43
2023-04-14T10:19:42.337Z,50180.03
2023-04-14T10:22:12.390Z,50184.02
2023-04-14T10:24:41.871Z,50170.83
2023-04-14T10:27:12.076Z,50199.62
2023-04-14T10:29:42.327Z,50174.44
2023-04-14T10:32:16.903Z,50184.43
2023-04-14T10:35:03.670Z,50178.83
2023-04-14T10:37:35.899Z,50180.43
2023-04-14T10:40:07.381Z,50172.84
2023-04-14T10:42:57.142Z,50181.23
2023-04-14T10:45:25.532Z,50169.64
2023-04-14T10:48:02.080Z,50180.43
2023-04-14T10:50:46.803Z,50180.04
2023-04-14T10:53:16.441Z,50180.83
2023-04-14T10:55:51.989Z,50183.23
2023-04-14T10:58:22.640Z,50178.83
2023-04-14T11:00:50.990Z,50176.83
2023-04-14T11:03:19.332Z,50171.63
2023-04-14T11:05:52.775Z,50179.63
2023-04-14T11:08:34.094Z,50183.63
2023-04-14T11:11:04.425Z,50176.43
2023-04-14T11:13:34.920Z,50185.23
2023-04-14T11:16:07.965Z,50196.02
2023-04-14T11:18:45.355Z,50184.43
2023-04-14T11:21:17.442Z,50176.83
2023-04-14T11:23:45.707Z,50180.83
2023-04-14T11:26:14.294Z,50202.42
2023-04-14T11:28:44.812Z,50177.63
2023-04-14T11:31:15.973Z,50180.43
2023-04-14T11:33:45.213Z,50183.63
2023-04-14T11:36:14.448Z,50182.03
2023-04-14T11:38:43.403Z,50185.23
2023-04-14T11:41:15.851Z,50183.23
2023-04-14T11:43:47.191Z,50183.23
2023-04-14T11:46:16.610Z,50180.43
2023-04-14T11:48:45.034Z,50185.23
2023-04-14T11:51:13.536Z,50189.23
2023-04-14T11:53:43.518Z,50178.43
2023-04-14T11:56:13.342Z,50188.02
2023-04-14T11:58:42.292Z,50196.02
2023-04-14T12:01:14.537Z,50176.83
2023-04-14T12:03:43.321Z,50200.82
2023-04-14T12:06:12.599Z,50170.04
2023-04-14T12:08:42.139Z,50180.03
2023-04-14T12:11:14.948Z,50188.03
2023-04-14T12:13:46.014Z,50176.83
2023-04-14T12:16:17.276Z,50186.03
2023-04-14T12:18:46.313Z,50180.43
2023-04-14T12:21:21.481Z,50192.83
2023-04-14T12:23:50.084Z,50199.62
2023-04-14T12:26:20.631Z,50183.23
2023-04-14T12:28:57.941Z,50180.43
2023-04-14T12:31:30.076Z,50192.82
2023-04-14T12:34:03.932Z,50191.23
2023-04-14T12:36:48.681Z,50182.43
2023-04-14T12:39:20.625Z,50188.82
2023-04-14T12:41:48.951Z,50182.83
2023-04-14T12:44:20.633Z,50185.23
2023-04-14T12:46:54.200Z,50192.02
2023-04-14T12:49:37.130Z,50188.83
2023-04-14T12:52:05.836Z,50185.23
2023-04-14T12:54:52.118Z,50188.43
2023-04-14T12:57:22.393Z,50160.44
2023-04-14T12:59:52.205Z,50164.43
2023-04-14T13:02:20.735Z,50175.63
2023-04-14T13:04:49.696Z,50181.23
2023-04-14T13:07:19.171Z,50180.43
2023-04-14T13:09:48.592Z,50178.43
2023-04-14T13:12:16.860Z,50176.83
2023-04-14T13:14:45.885Z,50170.43
2023-04-14T13:17:15.351Z,50174.03
2023-04-14T13:19:43.697Z,50173.63
2023-04-14T13:22:13.885Z,50179.23
2023-04-14T13:24:42.067Z,50180.03
2023-04-14T13:27:11.685Z,50171.64
2023-04-14T13:29:42.152Z,50181.63
2023-04-14T13:32:11.854Z,50175.63
2023-04-14T13:34:43.858Z,50173.63
2023-04-14T13:37:12.214Z,50192.02
2023-04-14T13:39:41.505Z,50183.23
2023-04-14T13:42:09.992Z,50195.23
2023-04-14T13:44:38.300Z,50188.82
2023-04-14T13:47:06.943Z,50209.62
2023-04-14T13:49:35.333Z,50173.23
2023-04-14T13:52:03.856Z,50182.43
2023-04-14T13:54:32.131Z,50189.23
2023-04-14T13:57:04.333Z,50188.43
2023-04-14T13:59:33.496Z,50185.63
2023-04-14T14:02:02.249Z,50179.23
2023-04-14T14:04:31.421Z,50183.63
2023-04-14T14:07:00.075Z,50184.03
2023-04-14T14:09:28.648Z,50196.82
2023-04-14T14:11:57.540Z,50169.24
2023-04-14T14:14:28.286Z,50185.23
2023-04-14T14:16:58.018Z,50199.63
2023-04-14T14:19:26.270Z,50202.42
2023-04-14T14:21:55.371Z,50208.82
2023-04-14T14:24:24.231Z,50212.02
2023-04-14T14:26:52.636Z,50194.82
2023-04-14T14:29:20.909Z,50202.02
2023-04-14T14:31:49.189Z,50219.22
2023-04-14T14:34:18.208Z,50200.02
2023-04-14T14:36:47.379Z,50197.63
2023-04-14T14:39:16.393Z,50216.42
2023-04-14T14:41:44.551Z,50212.02
2023-04-14T14:44:15.096Z,50198.02
2023-04-14T14:46:46.304Z,50231.61
2023-04-14T14:49:14.651Z,50217.62
2023-04-14T14:51:42.962Z,50198.42
2023-04-14T14:54:11.860Z,50204.42
2023-04-14T14:56:40.700Z,50210.42
2023-04-14T14:59:09.464Z,50215.62
2023-04-14T15:01:38.438Z,50209.62
2023-04-14T15:04:07.872Z,50207.22
2023-04-14T15:06:37.541Z,50215.21
2023-04-14T15:09:06.516Z,50212.42
2023-04-14T15:11:34.807Z,50218.02
2023-04-14T15:14:03.545Z,50198.42
2023-04-14T15:16:33.504Z,50213.62
2023-04-14T15:19:02.043Z,50214.82
2023-04-14T15:21:32.187Z,50212.02
2023-04-14T15:24:00.765Z,50213.62
2023-04-14T15:26:29.191Z,50231.21
2023-04-14T15:28:57.480Z,50205.63
2023-04-14T15:31:25.791Z,50222.41
2023-04-14T15:33:55.020Z,50221.62
2023-04-14T15:36:23.195Z,50220.82
2023-04-14T15:38:52.001Z,50207.62
2023-04-14T15:41:21.114Z,50222.02
2023-04-14T15:43:50.917Z,50227.21
2023-04-14T15:46:19.488Z,50219.22
2023-04-14T15:48:47.995Z,50214.82
2023-04-14T15:51:16.277Z,50232.01
2023-04-14T15:53:44.553Z,50219.22
2023-04-14T15:56:14.105Z,50230.01
2023-04-14T15:58:43.126Z,50228.02
2023-04-14T16:01:12.428Z,50235.61
2023-04-14T16:03:41.765Z,50214.82
2023-04-14T16:06:10.881Z,50230.01
2023-04-14T16:08:39.118Z,50234.01
2023-04-14T16:11:08.105Z,50233.21
2023-04-14T16:13:37.077Z,50228.81
2023-04-14T16:16:05.507Z,50235.21
2023-04-14T16:18:34.325Z,50223.62
2023-04-14T16:21:02.925Z,50240.01
2023-04-14T16:23:31.542Z,50242.01
2023-04-14T16:25:59.816Z,50232.01
2023-04-14T16:28:28.865Z,50237.21
2023-04-14T16:31:00.449Z,50240.41
2023-04-14T16:33:35.176Z,50237.21
2023-04-14T16:36:07.902Z,50236.01
2023-04-14T16:38:36.679Z,50226.82
2023-04-14T16:41:05.501Z,50232.41
2023-04-14T16:43:34.144Z,50234.01
2023-04-14T16:46:04.136Z,50218.42
2023-04-14T16:48:36.044Z,50245.21
2023-04-14T16:51:11.141Z,50234.81
2023-04-14T16:53:40.229Z,50236.01
2023-04-14T16:56:09.907Z,50233.61
2023-04-14T16:58:39.119Z,50244.01
2023-04-14T17:01:07.747Z,50252.41
2023-04-14T17:03:37.021Z,50234.41
2023-04-14T17:06:06.688Z,50237.21
2023-04-14T17:08:35.019Z,50234.41
2023-04-14T17:11:04.984Z,50248.01
2023-04-14T17:13:35.403Z,50242.01
2023-04-14T17:16:09.029Z,50250.41
2023-04-14T17:18:38.697Z,50247.21
2023-04-14T17:21:07.018Z,50238.41
2023-04-14T17:23:38.086Z,50245.21
2023-04-14T17:26:06.956Z,50252.80
2023-04-14T17:28:35.953Z,50242.41
2023-04-14T17:31:13.443Z,50244.81
2023-04-14T17:33:43.132Z,50243.21
2023-04-14T17:36:15.089Z,50232.41
2023-04-14T17:38:44.715Z,50244.01
2023-04-14T17:41:13.240Z,50254.41
2023-04-14T17:43:41.961Z,50254.01
2023-04-14T17:46:11.101Z,50219.62
2023-04-14T17:48:39.383Z,50234.01
2023-04-14T17:51:07.768Z,50248.80
2023-04-14T17:53:36.268Z,50256.40
2023-04-14T17:56:05.139Z,50224.41
2023-04-14T17:58:35.096Z,50236.81
2023-04-14T18:01:04.301Z,50232.01
2023-04-14T18:03:32.929Z,50234.41
2023-04-14T18:06:01.960Z,50244.41
2023-04-14T18:08:30.268Z,50235.21
2023-04-14T18:10:59.396Z,50246.81
2023-04-14T18:13:28.718Z,50237.61
2023-04-14T18:15:57.637Z,50252.41
2023-04-14T18:18:26.105Z,50244.01
2023-04-14T18:20:54.482Z,50252.80
2023-04-14T18:23:22.756Z,50235.61
2023-04-14T18:28:37.239Z,50230.41
2023-04-14T18:31:05.681Z,50254.80
2023-04-14T18:33:36.823Z,50242.41
2023-04-14T18:36:06.680Z,50230.41
2023-04-14T18:38:34.929Z,50235.21
2023-04-14T18:41:05.339Z,50240.41
2023-04-14T18:43:34.337Z,50236.81
2023-04-14T18:46:04.174Z,50234.41
2023-04-14T18:48:32.780Z,50244.01
2023-04-14T18:51:04.326Z,50230.81
2023-04-14T18:53:32.776Z,50232.81
2023-04-14T18:56:01.901Z,50232.81
2023-04-14T18:58:30.663Z,50237.61
2023-04-14T19:00:59.193Z,50242.41
2023-04-14T19:03:27.696Z,50241.61
2023-04-14T19:05:57.236Z,50230.41
2023-04-14T19:08:25.876Z,50225.21
2023-04-14T19:10:54.203Z,50236.41
2023-04-14T19:13:24.575Z,50223.21
2023-04-14T19:16:05.901Z,50226.82
2023-04-14T19:18:35.546Z,50211.62
2023-04-14T19:21:03.781Z,50228.02
2023-04-14T19:23:35.731Z,50226.01
2023-04-14T19:26:05.525Z,50232.01
2023-04-14T19:28:42.688Z,50214.42
2023-04-14T19:31:11.048Z,50227.21
2023-04-14T19:33:42.005Z,50215.62
2023-04-14T19:36:15.194Z,50231.61
2023-04-14T19:38:44.345Z,50206.02
2023-04-14T19:41:15.891Z,50206.02
2023-04-14T19:43:47.082Z,50206.82
2023-04-14T19:46:15.467Z,50216.82
2023-04-14T19:48:45.290Z,50204.02
2023-04-14T19:51:14.130Z,50230.01
2023-04-14T19:53:43.625Z,50208.02
2023-04-14T19:56:12.964Z,50200.82
2023-04-14T19:58:41.257Z,50187.23
2023-04-14T20:01:10.055Z,50190.03
2023-04-14T20:03:38.701Z,50200.82
2023-04-14T20:06:26.892Z,50196.43
2023-04-14T20:08:55.442Z,50207.62
2023-04-14T20:11:27.490Z,50214.02
2023-04-14T20:13:55.640Z,50207.22
2023-04-14T20:16:24.676Z,50205.62
2023-04-14T20:18:52.931Z,50208.43
2023-04-14T20:21:22.755Z,50202.02
2023-04-14T20:23:53.249Z,50212.02
2023-04-14T20:26:21.628Z,50215.62
2023-04-14T20:28:50.532Z,50214.42
2023-04-14T20:31:22.430Z,50221.62
2023-04-14T20:33:51.103Z,50209.22
2023-04-14T20:36:19.421Z,50211.22
2023-04-14T20:38:48.959Z,50208.43
2023-04-14T20:41:17.328Z,50220.82
2023-04-14T20:43:45.869Z,50219.62
2023-04-14T20:46:14.061Z,50205.22
2023-04-14T20:48:42.500Z,50204.82
2023-04-14T20:51:11.492Z,50214.42
2023-04-14T20:53:39.986Z,50216.41
2023-04-14T20:56:08.298Z,50214.82
2023-04-14T20:58:39.821Z,50212.82
2023-04-14T21:01:08.194Z,50224.82
2023-04-14T21:03:39.576Z,50227.21
2023-04-14T21:06:08.092Z,50225.22
2023-04-14T21:08:36.387Z,50232.01
2023-04-14T21:11:16.964Z,50226.02
2023-04-14T21:15:40.342Z,50212.42
2023-04-14T21:16:36.288Z,50221.21
2023-04-14T21:19:05.733Z,50225.21
2023-04-14T21:21:34.560Z,50220.02
2023-04-14T21:24:03.802Z,50215.62
2023-04-14T21:26:32.085Z,50228.81
2023-04-14T21:29:00.671Z,50217.62
2023-04-14T21:31:29.048Z,50214.42
2023-04-14T21:33:59.484Z,50226.82
2023-04-14T21:36:28.893Z,50227.21
2023-04-14T21:38:57.400Z,50215.21
2023-04-14T21:41:25.661Z,50222.02
2023-04-14T21:43:53.875Z,50228.41
2023-04-14T21:46:22.180Z,50212.02
2023-04-14T21:48:50.778Z,50207.62
2023-04-14T21:51:19.222Z,50217.22
2023-04-14T21:53:47.468Z,50226.82
2023-04-14T21:56:15.748Z,50229.61
2023-04-14T21:58:45.880Z,50233.21
2023-04-14T22:01:14.146Z,50207.63
2023-04-14T22:03:45.673Z,50210.02
2023-04-14T22:06:14.084Z,50214.82
2023-04-14T22:08:43.573Z,50208.42
2023-04-14T22:11:12.623Z,50226.82
2023-04-14T22:13:40.850Z,50222.41
2023-04-14T22:16:12.160Z,50209.22
2023-04-14T22:18:40.690Z,50202.82
2023-04-14T22:21:14.610Z,50202.43
2023-04-14T22:23:43.870Z,50218.41
2023-04-14T22:26:13.675Z,50220.81
2023-04-14T22:28:41.916Z,50209.62
2023-04-14T22:31:10.267Z,50218.82
2023-04-14T22:33:42.380Z,50214.42
2023-04-14T22:36:10.659Z,50220.41
2023-04-14T22:38:38.922Z,50231.21
2023-04-14T22:41:07.692Z,50216.42
2023-04-14T22:43:36.114Z,50234.41
2023-04-14T22:46:05.248Z,50211.62
2023-04-14T22:48:33.508Z,50226.01
2023-04-14T22:51:01.900Z,50214.02
2023-04-14T22:53:31.841Z,50216.82
2023-04-14T22:56:03.734Z,50214.42
2023-04-14T22:58:39.146Z,50218.82
2023-04-14T23:01:19.315Z,50229.61
2023-04-14T23:03:52.924Z,50243.61
2023-04-14T23:06:24.314Z,50220.02
2023-04-14T23:08:52.780Z,50236.01
2023-04-14T23:11:21.401Z,50225.61
2023-04-14T23:13:51.594Z,50225.61
2023-04-14T23:16:20.781Z,50212.82
2023-04-14T23:18:52.093Z,50241.21
2023-04-14T23:21:24.081Z,50242.01
2023-04-14T23:23:52.626Z,50232.81
2023-04-14T23:26:21.985Z,50231.61
2023-04-14T23:28:50.759Z,50223.61
2023-04-14T23:31:19.229Z,50242.01
2023-04-14T23:33:51.130Z,50229.21
2023-04-14T23:36:19.727Z,50233.61
2023-04-14T23:38:48.031Z,50226.81
2023-04-14T23:41:20.642Z,50227.61
2023-04-14T23:43:50.986Z,50242.41
2023-04-14T23:46:19.613Z,50219.21
2023-04-14T23:48:47.998Z,50237.61
2023-04-14T23:51:20.352Z,50241.21
2023-04-14T23:53:51.828Z,50237.61
2023-04-14T23:56:21.549Z,50236.41
2023-04-14T23:58:49.794Z,50240.01
